Minnetonka Mills, Minnesota
Current Conditions -  °F | °C
As of 11:53 AM on Thursday 23 Oct 2014 (Local Time) from KFCM Reporting Station
Few Clouds Few Clouds  
Wind Chill: 14°   Ceiling: Unl
Heat Index: 14°   Visibility: 10mi
Dew Point: 11°   Wind: 8mph
Humidity: 81%   Direction: 230°SW
Pressure: 30"   Gusts: NA
Location:  44.9144°N, 93.4174°W
Report Text: KFCM 231653Z 23007KT 10SM FEW012 14/11 A3000 RMK AO2 SLP160 T01440111
Loading
Personal Weather Stations






























Interactive Weather Map
Tropical Storm Tracking
New forecast layout! Learn more

10-Day Weather Forecast

Advertisements
Track Severe Weather on mobile